createdAt,value
2023-09-06T00:04:49.787Z,94.00
2023-09-06T00:09:54.520Z,94.10
2023-09-06T00:14:58.993Z,94.20
2023-09-06T00:20:02.627Z,94.40
2023-09-06T00:25:09.221Z,94.40
2023-09-06T00:30:13.687Z,94.50
2023-09-06T00:35:17.794Z,94.70
2023-09-06T00:40:23.645Z,94.70
2023-09-06T00:45:49.221Z,94.90
2023-09-06T00:50:58.236Z,95.10
2023-09-06T00:56:05.056Z,95.20
2023-09-06T01:01:09.975Z,95.30
2023-09-06T01:06:28.344Z,95.70
2023-09-06T01:11:38.315Z,95.90
2023-09-06T01:16:49.879Z,96.00
2023-09-06T01:22:11.974Z,96.00
2023-09-06T01:27:17.169Z,96.10
2023-09-06T01:32:20.757Z,96.30
2023-09-06T01:37:24.414Z,96.30
2023-09-06T01:42:29.254Z,96.50
2023-09-06T01:47:32.852Z,96.60
2023-09-06T01:52:37.915Z,96.80
2023-09-06T01:57:41.682Z,97.00
2023-09-06T02:02:45.519Z,97.90
2023-09-06T02:07:49.451Z,98.10
2023-09-06T02:12:53.230Z,98.20
2023-09-06T02:17:57.553Z,98.00
2023-09-06T02:23:01.172Z,97.90
2023-09-06T02:28:05.986Z,97.90
2023-09-06T02:33:12.867Z,97.90
2023-09-06T02:38:17.433Z,97.90
2023-09-06T02:43:20.959Z,97.90
2023-09-06T02:48:24.822Z,97.90
2023-09-06T02:53:32.466Z,98.00
2023-09-06T02:58:38.830Z,98.10
2023-09-06T03:03:43.656Z,98.20
2023-09-06T03:08:48.199Z,98.40
2023-09-06T03:13:56.529Z,98.50
2023-09-06T03:19:00.526Z,98.80
2023-09-06T03:24:13.524Z,98.90
2023-09-06T03:29:19.086Z,99.10
2023-09-06T03:34:23.322Z,99.30
2023-09-06T03:39:30.460Z,99.40
2023-09-06T03:44:34.518Z,99.60
2023-09-06T03:49:37.982Z,99.60
2023-09-06T03:54:41.938Z,99.70
2023-09-06T03:59:46.224Z,99.80
2023-09-06T04:04:49.983Z,99.80
2023-09-06T04:09:57.658Z,99.80
2023-09-06T04:15:01.279Z,99.90
2023-09-06T04:20:20.351Z,99.90
2023-09-06T04:25:24.131Z,99.90
2023-09-06T04:30:30.119Z,99.90
2023-09-06T04:35:44.352Z,99.90
2023-09-06T04:40:50.280Z,99.90
2023-09-06T04:45:55.292Z,99.90
2023-09-06T04:51:00.542Z,99.90
2023-09-06T04:56:08.010Z,99.90
2023-09-06T05:01:11.897Z,99.90
2023-09-06T05:06:15.758Z,99.90
2023-09-06T05:11:19.967Z,99.90
2023-09-06T05:16:23.712Z,99.90
2023-09-06T05:21:27.174Z,99.90
2023-09-06T05:26:32.306Z,99.90
2023-09-06T05:31:36.140Z,99.90
2023-09-06T05:36:39.819Z,99.90
2023-09-06T05:41:44.071Z,99.90
2023-09-06T05:46:48.611Z,99.90
2023-09-06T05:51:52.347Z,99.90
2023-09-06T05:56:55.893Z,99.90
2023-09-06T06:01:59.488Z,99.70
2023-09-06T06:07:03.213Z,99.60
2023-09-06T06:12:07.399Z,99.30
2023-09-06T06:17:11.026Z,99.20
2023-09-06T06:22:14.693Z,99.00
2023-09-06T06:27:20.085Z,98.80
2023-09-06T06:32:24.092Z,98.50
2023-09-06T06:37:28.233Z,98.20
2023-09-06T06:42:34.492Z,97.80
2023-09-06T06:47:38.382Z,97.50
2023-09-06T06:52:45.865Z,97.40
2023-09-06T06:57:49.725Z,97.20
2023-09-06T07:02:54.095Z,97.00
2023-09-06T07:07:57.848Z,96.70
2023-09-06T07:13:01.607Z,96.40
2023-09-06T07:18:09.741Z,96.10
2023-09-06T07:23:13.639Z,95.70
2023-09-06T07:28:17.594Z,95.40
2023-09-06T07:33:21.385Z,94.80
2023-09-06T07:38:26.012Z,94.20
2023-09-06T07:43:30.787Z,93.60
2023-09-06T07:48:37.155Z,92.30
2023-09-06T07:53:43.064Z,91.60
2023-09-06T07:58:46.910Z,91.00
2023-09-06T08:03:50.258Z,90.50
2023-09-06T08:08:54.038Z,89.20
2023-09-06T08:13:58.235Z,87.60
2023-09-06T08:19:02.128Z,85.70
2023-09-06T08:24:05.898Z,85.10
2023-09-06T08:29:10.648Z,84.10
2023-09-06T08:34:14.339Z,84.10
2023-09-06T08:39:18.033Z,83.90
2023-09-06T08:44:25.696Z,81.80
2023-09-06T08:49:29.556Z,80.00
2023-09-06T08:54:34.699Z,79.10
2023-09-06T08:59:39.826Z,78.90
2023-09-06T09:04:44.236Z,78.40
2023-09-06T09:10:04.956Z,77.40
2023-09-06T09:15:22.856Z,77.60
2023-09-06T09:20:28.620Z,76.60
2023-09-06T09:25:34.394Z,75.70
2023-09-06T09:30:39.457Z,72.70
2023-09-06T09:35:45.208Z,71.00
2023-09-06T09:41:07.325Z,70.50
2023-09-06T09:46:11.409Z,69.30
2023-09-06T09:51:17.711Z,68.30
2023-09-06T09:56:23.504Z,68.70
2023-09-06T10:01:29.644Z,68.30
2023-09-06T10:06:34.106Z,67.70
2023-09-06T10:11:39.024Z,66.30
2023-09-06T10:16:43.019Z,63.80
2023-09-06T10:21:48.152Z,64.50
2023-09-06T10:26:55.351Z,64.30
2023-09-06T10:32:05.821Z,64.00
2023-09-06T10:37:09.495Z,64.10
2023-09-06T10:42:13.223Z,62.50
2023-09-06T10:47:28.812Z,63.00
2023-09-06T10:52:45.360Z,63.40
2023-09-06T10:57:55.973Z,63.10
2023-09-06T11:03:08.946Z,62.50
2023-09-06T11:08:31.267Z,60.80
2023-09-06T11:13:37.001Z,61.70
2023-09-06T11:18:48.815Z,61.40
2023-09-06T11:23:55.373Z,60.20
2023-09-06T11:29:05.504Z,59.90
2023-09-06T11:34:12.663Z,59.20
2023-09-06T11:39:29.879Z,59.20
2023-09-06T11:44:34.912Z,57.40
2023-09-06T11:49:41.711Z,58.10
2023-09-06T11:54:51.429Z,58.10
2023-09-06T11:59:59.454Z,56.90
2023-09-06T12:05:05.313Z,56.70
2023-09-06T12:10:10.064Z,56.20
2023-09-06T12:15:21.611Z,54.60
2023-09-06T12:20:26.024Z,55.70
2023-09-06T12:25:29.669Z,54.30
2023-09-06T12:30:33.352Z,53.90
2023-09-06T12:35:39.893Z,54.10
2023-09-06T12:40:43.964Z,53.30
2023-09-06T12:45:49.018Z,53.50
2023-09-06T12:50:54.854Z,53.60
2023-09-06T12:56:00.300Z,53.40
2023-09-06T13:01:04.626Z,52.90
2023-09-06T13:06:09.976Z,52.50
2023-09-06T13:11:14.047Z,52.70
2023-09-06T13:16:18.190Z,53.40
2023-09-06T13:21:22.437Z,53.40
2023-09-06T13:26:27.439Z,53.20
2023-09-06T13:31:31.308Z,52.60
2023-09-06T13:36:37.521Z,53.40
2023-09-06T13:41:42.555Z,52.90
2023-09-06T13:46:50.950Z,53.20
2023-09-06T13:51:55.016Z,53.50
2023-09-06T13:56:58.783Z,53.70
2023-09-06T14:02:04.815Z,53.00
2023-09-06T14:07:08.695Z,53.30
2023-09-06T14:12:12.249Z,53.10
2023-09-06T14:17:16.175Z,53.20
2023-09-06T14:22:20.637Z,53.00
2023-09-06T14:27:24.568Z,53.20
2023-09-06T14:32:28.465Z,52.90
2023-09-06T14:37:32.252Z,53.20
2023-09-06T14:42:35.622Z,53.20
2023-09-06T14:47:39.252Z,53.60
2023-09-06T14:52:42.720Z,53.10
2023-09-06T14:57:46.473Z,52.50
2023-09-06T15:02:51.316Z,52.50
2023-09-06T15:07:56.828Z,52.20
2023-09-06T15:13:01.272Z,52.10
2023-09-06T15:18:05.955Z,51.70
2023-09-06T15:23:09.739Z,50.70
2023-09-06T15:28:13.321Z,50.50
2023-09-06T15:33:17.253Z,50.20
2023-09-06T15:38:20.862Z,48.50
2023-09-06T15:43:24.921Z,48.50
2023-09-06T15:48:29.008Z,48.20
2023-09-06T15:53:33.399Z,48.20
2023-09-06T15:58:36.952Z,48.00
2023-09-06T16:03:40.638Z,48.10
2023-09-06T16:08:44.453Z,48.60
2023-09-06T16:13:48.026Z,49.30
2023-09-06T16:18:53.251Z,50.00
2023-09-06T16:24:01.710Z,50.80
2023-09-06T16:29:11.977Z,51.50
2023-09-06T16:34:16.172Z,52.30
2023-09-06T16:39:19.885Z,53.10
2023-09-06T16:44:23.678Z,53.90
2023-09-06T16:49:27.387Z,54.60
2023-09-06T16:54:30.953Z,55.50
2023-09-06T16:59:34.646Z,56.50
2023-09-06T17:04:38.108Z,57.50
2023-09-06T17:09:41.699Z,58.90
2023-09-06T17:14:45.271Z,59.90
2023-09-06T17:19:49.265Z,61.00
2023-09-06T17:24:52.737Z,62.60
2023-09-06T17:29:56.322Z,63.80
2023-09-06T17:35:01.590Z,64.70
2023-09-06T17:40:11.740Z,65.50
2023-09-06T17:45:16.405Z,67.30
2023-09-06T17:50:20.267Z,67.90
2023-09-06T17:55:26.507Z,69.00
2023-09-06T18:00:30.225Z,69.60
2023-09-06T18:05:34.635Z,70.00
2023-09-06T18:10:39.676Z,70.00
2023-09-06T18:15:43.767Z,71.00
2023-09-06T18:20:48.166Z,70.70
2023-09-06T18:25:57.541Z,71.80
2023-09-06T18:31:02.864Z,71.20
2023-09-06T18:36:10.593Z,71.40
2023-09-06T18:41:14.364Z,71.90
2023-09-06T18:46:17.985Z,72.10
2023-09-06T18:51:21.729Z,73.50
2023-09-06T18:56:25.210Z,74.40
2023-09-06T19:01:29.937Z,74.90
2023-09-06T19:06:35.750Z,74.30
2023-09-06T19:11:39.480Z,75.30
2023-09-06T19:16:43.203Z,75.40
2023-09-06T19:21:46.889Z,76.30
2023-09-06T19:26:50.711Z,76.10
2023-09-06T19:31:54.649Z,76.70
2023-09-06T19:36:59.291Z,78.40
2023-09-06T19:42:03.069Z,77.70
2023-09-06T19:47:06.881Z,78.20
2023-09-06T19:52:11.222Z,79.30
2023-09-06T19:57:16.810Z,79.80
2023-09-06T20:02:20.511Z,80.30
2023-09-06T20:07:24.426Z,79.40
2023-09-06T20:12:28.269Z,80.10
2023-09-06T20:17:32.141Z,80.20
2023-09-06T20:22:35.644Z,80.60
2023-09-06T20:27:39.380Z,81.50
2023-09-06T20:32:43.347Z,81.60
2023-09-06T20:37:47.063Z,81.70
2023-09-06T20:42:50.675Z,82.50
2023-09-06T20:47:54.626Z,83.20
2023-09-06T20:52:58.541Z,83.20
2023-09-06T20:58:02.696Z,83.00
2023-09-06T21:03:06.224Z,83.00
2023-09-06T21:08:09.818Z,83.30
2023-09-06T21:13:13.379Z,83.90
2023-09-06T21:18:17.194Z,84.40
2023-09-06T21:23:20.717Z,84.70
2023-09-06T21:28:24.080Z,84.70
2023-09-06T21:33:27.960Z,84.50
2023-09-06T21:38:31.765Z,84.90
2023-09-06T21:43:35.717Z,85.90
2023-09-06T21:48:41.185Z,85.80
2023-09-06T21:53:45.728Z,86.30
2023-09-06T21:58:49.453Z,86.70
2023-09-06T22:03:53.254Z,86.90
2023-09-06T22:08:57.107Z,87.20
2023-09-06T22:14:00.911Z,87.10
2023-09-06T22:19:04.775Z,88.10
2023-09-06T22:24:10.272Z,87.80
2023-09-06T22:29:13.921Z,88.10
2023-09-06T22:34:17.504Z,88.30
2023-09-06T22:39:21.108Z,88.40
2023-09-06T22:44:24.688Z,87.90
2023-09-06T22:49:28.300Z,88.40
2023-09-06T22:54:32.001Z,88.10
2023-09-06T22:59:37.404Z,87.70
2023-09-06T23:04:42.932Z,88.40
2023-09-06T23:09:46.506Z,88.40
2023-09-06T23:14:50.679Z,88.10
2023-09-06T23:19:57.165Z,88.50
2023-09-06T23:25:02.032Z,89.30
2023-09-06T23:30:10.760Z,89.00
2023-09-06T23:35:15.404Z,89.80
2023-09-06T23:40:23.422Z,90.10
2023-09-06T23:45:27.176Z,90.30
2023-09-06T23:50:32.823Z,90.20
2023-09-06T23:55:37.101Z,90.50
